Mevohot Yam — MVTYAM — position and weather

sailwx.info

Track history (hours):
 
Tides and Currents Weather Stations Pressure Air Temp Water Temp Dewpoint Dewpoint Depression Visibility Wind Speed Wind Dir Waves Ship Positions

Mevohot Yam

Last reported at 2018-Apr-12 00:28 UTC. Time now 2018-Apr-21 07:55 UTC.
Position N 32°51' E 034°59'.
Warning: this ship's position is 9 days out of date.

Length 22 m.

Type: Fishing. MMSI: 428150078.

Date/timePositionNaut miles runAvg speedWind from/ knotsBaromVisibWave heightAir tempDewpointWater temp
2018-Apr-12 00:28N 32°51' E 034°59'48 1.0
2018-Apr-10 00:41N 32°05' E 034°41'1 3.1
2018-Apr-10 00:29N 32°06' E 034°41'2 3.1
2018-Apr-09 23:58N 32°07' E 034°42'1 3.1
2018-Apr-09 23:30N 32°09' E 034°43'15 2.9
2018-Apr-09 18:23N 32°23' E 034°48'1 3.2
2018-Apr-09 18:00N 32°24' E 034°48'2 3.2
2018-Apr-09 17:29N 32°26' E 034°49'1 3.1
2018-Apr-09 17:00N 32°27' E 034°49'  
2018-Apr-04 00:40N 32°51' E 034°59'1 6.9
2018-Apr-04 00:30N 32°50' E 034°57'22 1.0
2018-Apr-03 03:05N 32°29' E 034°49'0 1.4
2018-Apr-03 02:58N 32°30' E 034°49'2 3.1
2018-Apr-03 02:29N 32°31' E 034°50'2 3.2
2018-Apr-03 02:00N 32°33' E 034°50'2 3.3
2018-Apr-03 01:27N 32°34' E 034°50'3 1.5
2018-Apr-02 23:37N 32°32' E 034°50'0 3.1
2018-Apr-02 23:30N 32°31' E 034°50'2 3.1
2018-Apr-02 22:58N 32°30' E 034°50'1 3.1
2018-Apr-02 22:30N 32°28' E 034°49'1 2.1
2018-Apr-02 21:50N 32°27' E 034°49'1 2.4
2018-Apr-02 21:29N 32°28' E 034°48'2 3.3
2018-Apr-02 21:00N 32°29' E 034°49'2 3.2
2018-Apr-02 20:30N 32°31' E 034°49'2 3.2
2018-Apr-02 20:00N 32°32' E 034°50'2 3.2
2018-Apr-02 19:30N 32°34' E 034°50'2 3.1
2018-Apr-02 18:59N 32°35' E 034°51'2 3.0
2018-Apr-02 18:13N 32°33' E 034°50'1 3.1
2018-Apr-02 17:59N 32°32' E 034°50'1 3.1
2018-Apr-02 17:30N 32°31' E 034°50'2 0.1
2018-Apr-02 02:55N 32°30' E 034°49'1 3.3
2018-Apr-02 02:30N 32°31' E 034°49'2 3.3
2018-Apr-02 01:59N 32°33' E 034°50'  
Track history (hours):
 
Tides and Currents Weather Stations Pressure Air Temp Water Temp Dewpoint Dewpoint Depression Visibility Wind Speed Wind Dir Waves Ship Positions

Mevohot Yam

Last reported at 2018-Apr-12 00:28 UTC. Time now 2018-Apr-21 07:55 UTC.
Position N 32°51' E 034°59'.
Warning: this ship's position is 9 days out of date.

Length 22 m.

Type: Fishing. MMSI: 428150078.

Date/timePositionNaut miles runAvg speedWind from/ knotsBaromVisibWave heightAir tempDewpointWater temp
2018-Apr-12 00:28N 32°51' E 034°59'48 1.0
2018-Apr-10 00:41N 32°05' E 034°41'1 3.1
2018-Apr-10 00:29N 32°06' E 034°41'2 3.1
2018-Apr-09 23:58N 32°07' E 034°42'1 3.1
2018-Apr-09 23:30N 32°09' E 034°43'15 2.9
2018-Apr-09 18:23N 32°23' E 034°48'1 3.2
2018-Apr-09 18:00N 32°24' E 034°48'2 3.2
2018-Apr-09 17:29N 32°26' E 034°49'1 3.1
2018-Apr-09 17:00N 32°27' E 034°49'  
2018-Apr-04 00:40N 32°51' E 034°59'1 6.9
2018-Apr-04 00:30N 32°50' E 034°57'22 1.0
2018-Apr-03 03:05N 32°29' E 034°49'0 1.4
2018-Apr-03 02:58N 32°30' E 034°49'2 3.1
2018-Apr-03 02:29N 32°31' E 034°50'2 3.2
2018-Apr-03 02:00N 32°33' E 034°50'2 3.3
2018-Apr-03 01:27N 32°34' E 034°50'3 1.5
2018-Apr-02 23:37N 32°32' E 034°50'0 3.1
2018-Apr-02 23:30N 32°31' E 034°50'2 3.1
2018-Apr-02 22:58N 32°30' E 034°50'1 3.1
2018-Apr-02 22:30N 32°28' E 034°49'1 2.1
2018-Apr-02 21:50N 32°27' E 034°49'1 2.4
2018-Apr-02 21:29N 32°28' E 034°48'2 3.3
2018-Apr-02 21:00N 32°29' E 034°49'2 3.2
2018-Apr-02 20:30N 32°31' E 034°49'2 3.2
2018-Apr-02 20:00N 32°32' E 034°50'2 3.2
2018-Apr-02 19:30N 32°34' E 034°50'2 3.1
2018-Apr-02 18:59N 32°35' E 034°51'2 3.0
2018-Apr-02 18:13N 32°33' E 034°50'1 3.1
2018-Apr-02 17:59N 32°32' E 034°50'1 3.1
2018-Apr-02 17:30N 32°31' E 034°50'2 0.1
2018-Apr-02 02:55N 32°30' E 034°49'1 3.3
2018-Apr-02 02:30N 32°31' E 034°49'2 3.3
2018-Apr-02 01:59N 32°33' E 034°50'  

Dump ship's entire track history